PWSweather.com
Personal Weather Stations
Station Observations
SWHWX01
St AppolinardFR 38160

St AppolinardFR 38160

Lat: 45.191, Lon: 5.268

Elevation: 1460

Station Type: Davis Vantage Pro2 Plus

www.sweetwebhome.com/?show=wxindex

High Low Average
Temperature 40.0°F4.4°C 28.5°F-1.9°C 35.0°F1.7°C
Dew Point 37.7°F3.2°C 25.1°F-3.8°C 33.1°F0.6°C
Winds 3.9 mph 6.3 kmh Calm Calm 1.0 mph S1.6 kmh S
Wind Gusts 7.0 mph11.3 kmh -- 2.0 mph3.2 kmh
Humidity 96% 87% 93%
Pressure 29.59 in1002.0 mb 29.28 in991.5 mb -
Precipitation 0.00 in0.0 mm - -
Hour Temp Dew Point Humidity Winds Wind Gusts Pressure Precip Precip Rate Daily Precip Total
12:00 AM 28.1°F-2.2°C 24.5°F-4.2°C 86% 0.3 mph S0.5 kmh S 1.0 mph1.6 kmh 29.60 in1002.4 mb - 0.00 in0.0 mm 0.00 in0.0 mm
12:30 AM 28.5°F-1.9°C 25.1°F-3.8°C 87% Calm Calm -- 29.59 in1002.0 mb - 0.00 in0.0 mm 0.00 in0.0 mm
01:00 AM 28.5°F-1.9°C 25.1°F-3.8°C 87% 0.5 mph S0.8 kmh S 2.0 mph3.2 kmh 29.59 in1002.0 mb - 0.00 in0.0 mm 0.00 in0.0 mm
01:30 AM 28.5°F-1.9°C 25.1°F-3.8°C 87% 1.0 mph S1.6 kmh S 2.0 mph3.2 kmh 29.57 in1001.4 mb - 0.00 in0.0 mm 0.00 in0.0 mm
02:00 AM 28.5°F-1.9°C 25.1°F-3.8°C 87% 0.3 mph S0.5 kmh S 1.0 mph1.6 kmh 29.56 in1001.0 mb - 0.00 in0.0 mm 0.00 in0.0 mm
02:30 AM 28.8°F-1.8°C 25.7°F-3.5°C 88% Calm Calm -- 29.56 in1001.0 mb - 0.00 in0.0 mm 0.00 in0.0 mm
03:00 AM 28.7°F-1.8°C 25.5°F-3.6°C 88% Calm Calm -- 29.54 in1000.3 mb - 0.00 in0.0 mm 0.00 in0.0 mm
03:30 AM 29.1°F-1.6°C 26.2°F-3.2°C 89% Calm Calm -- 29.53 in1000.0 mb - 0.00 in0.0 mm 0.00 in0.0 mm
04:00 AM 29.6°F-1.3°C 27.0°F-2.8°C 90% Calm Calm -- 29.53 in1000.0 mb - 0.00 in0.0 mm 0.00 in0.0 mm
04:30 AM 30.0°F-1.1°C 27.7°F-2.4°C 91% Calm Calm -- 29.52 in999.7 mb - 0.00 in0.0 mm 0.00 in0.0 mm
05:00 AM 30.4°F-0.9°C 28.4°F-2.0°C 92% Calm Calm -- 29.52 in999.7 mb - 0.00 in0.0 mm 0.00 in0.0 mm
05:30 AM 30.5°F-0.8°C 28.5°F-1.9°C 92% Calm Calm -- 29.52 in999.7 mb - 0.00 in0.0 mm 0.00 in0.0 mm
06:00 AM 31.8°F-0.1°C 30.0°F-1.1°C 93% 2.9 mph S4.7 kmh S 6.0 mph9.7 kmh 29.52 in999.7 mb - 0.00 in0.0 mm 0.00 in0.0 mm
06:30 AM 31.5°F-0.3°C 30.0°F-1.1°C 94% 2.2 mph S3.5 kmh S 5.0 mph8.0 kmh 29.52 in999.7 mb - 0.00 in0.0 mm 0.00 in0.0 mm
07:00 AM 31.5°F-0.3°C 30.0°F-1.1°C 94% 0.3 mph S0.5 kmh S 2.0 mph3.2 kmh 29.53 in1000.0 mb - 0.00 in0.0 mm 0.00 in0.0 mm
07:30 AM 31.4°F-0.3°C 29.9°F-1.2°C 94% 1.1 mph S1.8 kmh S 4.0 mph6.4 kmh 29.52 in999.7 mb - 0.00 in0.0 mm 0.00 in0.0 mm
08:00 AM 31.7°F-0.2°C 30.4°F-0.9°C 95% Calm Calm -- 29.52 in999.7 mb - 0.00 in0.0 mm 0.00 in0.0 mm
08:30 AM 31.8°F-0.1°C 30.6°F-0.8°C 95% 0.3 mph S0.5 kmh S 1.0 mph1.6 kmh 29.52 in999.7 mb - 0.00 in0.0 mm 0.00 in0.0 mm
09:00 AM 31.9°F-0.1°C 30.6°F-0.8°C 95% 1.0 mph S1.6 kmh S 2.0 mph3.2 kmh 29.51 in999.3 mb - 0.00 in0.0 mm 0.00 in0.0 mm
09:30 AM 31.8°F-0.1°C 30.3°F-0.9°C 94% 1.9 mph S3.1 kmh S 2.0 mph3.2 kmh 29.51 in999.3 mb - 0.00 in0.0 mm 0.00 in0.0 mm
10:00 AM 32.3°F0.2°C 31.0°F-0.6°C 95% 0.1 mph S0.2 kmh S 1.0 mph1.6 kmh 29.51 in999.3 mb - 0.00 in0.0 mm 0.00 in0.0 mm
10:30 AM 33.5°F0.8°C 32.2°F0.1°C 95% 2.0 mph S3.2 kmh S 4.0 mph6.4 kmh 29.50 in999.0 mb - 0.00 in0.0 mm 0.00 in0.0 mm
11:00 AM 34.3°F1.3°C 32.7°F0.4°C 94% 2.1 mph S3.4 kmh S 2.0 mph3.2 kmh 29.49 in998.6 mb - 0.00 in0.0 mm 0.00 in0.0 mm
11:30 AM 35.2°F1.8°C 33.4°F0.8°C 93% 1.3 mph S2.1 kmh S 2.0 mph3.2 kmh 29.49 in998.6 mb - 0.00 in0.0 mm 0.00 in0.0 mm
12:00 PM 36.0°F2.2°C 34.2°F1.2°C 93% 1.3 mph S2.1 kmh S 1.0 mph1.6 kmh 29.48 in998.3 mb - 0.00 in0.0 mm 0.00 in0.0 mm
12:30 PM 37.5°F3.1°C 35.6°F2.0°C 93% 1.3 mph S2.1 kmh S 2.0 mph3.2 kmh 29.46 in997.6 mb - 0.00 in0.0 mm 0.00 in0.0 mm
01:00 PM 38.4°F3.6°C 36.3°F2.4°C 92% 3.2 mph SW5.1 kmh SW 6.0 mph9.7 kmh 29.45 in997.3 mb - 0.00 in0.0 mm 0.00 in0.0 mm
01:30 PM 39.2°F4.0°C 36.8°F2.7°C 91% 3.9 mph SSW6.3 kmh SSW 7.0 mph11.3 kmh 29.44 in997.0 mb - 0.00 in0.0 mm 0.00 in0.0 mm
02:00 PM 39.6°F4.2°C 36.9°F2.7°C 90% 3.6 mph SSW5.8 kmh SSW 5.0 mph8.0 kmh 29.43 in996.6 mb - 0.00 in0.0 mm 0.00 in0.0 mm
02:30 PM 39.4°F4.1°C 36.7°F2.6°C 90% 3.2 mph SSW5.1 kmh SSW 6.0 mph9.7 kmh 29.42 in996.3 mb - 0.00 in0.0 mm 0.00 in0.0 mm
03:00 PM 40.0°F4.4°C 37.3°F2.9°C 90% 2.2 mph SSW3.5 kmh SSW 5.0 mph8.0 kmh 29.41 in995.9 mb - 0.00 in0.0 mm 0.00 in0.0 mm
03:30 PM 39.8°F4.3°C 37.1°F2.8°C 90% 2.7 mph SW4.3 kmh SW 3.0 mph4.8 kmh 29.40 in995.6 mb - 0.00 in0.0 mm 0.00 in0.0 mm
04:00 PM 39.6°F4.2°C 37.2°F2.9°C 91% 2.8 mph SW4.5 kmh SW 4.0 mph6.4 kmh 29.39 in995.3 mb - 0.00 in0.0 mm 0.00 in0.0 mm
04:30 PM 39.3°F4.1°C 37.4°F3.0°C 93% 2.3 mph SW3.7 kmh SW 3.0 mph4.8 kmh 29.39 in995.3 mb - 0.00 in0.0 mm 0.00 in0.0 mm
05:00 PM 39.1°F3.9°C 37.5°F3.1°C 94% 1.7 mph SW2.7 kmh SW 2.0 mph3.2 kmh 29.38 in994.9 mb - 0.00 in0.0 mm 0.00 in0.0 mm
05:30 PM 38.9°F3.8°C 37.3°F2.9°C 94% 0.5 mph SW0.8 kmh SW 2.0 mph3.2 kmh 29.38 in994.9 mb - 0.00 in0.0 mm 0.00 in0.0 mm
06:00 PM 38.8°F3.8°C 37.2°F2.9°C 94% Calm Calm -- 29.37 in994.6 mb - 0.00 in0.0 mm 0.00 in0.0 mm
06:30 PM 38.6°F3.7°C 37.3°F2.9°C 95% Calm Calm -- 29.37 in994.6 mb - 0.00 in0.0 mm 0.00 in0.0 mm
07:00 PM 38.5°F3.6°C 37.2°F2.9°C 95% Calm Calm -- 29.37 in994.6 mb - 0.00 in0.0 mm 0.00 in0.0 mm
07:30 PM 38.2°F3.4°C 36.9°F2.7°C 95% Calm Calm -- 29.37 in994.6 mb - 0.00 in0.0 mm 0.00 in0.0 mm
08:00 PM 38.4°F3.6°C 37.1°F2.8°C 95% Calm Calm -- 29.36 in994.2 mb - 0.00 in0.0 mm 0.00 in0.0 mm
08:30 PM 38.1°F3.4°C 36.8°F2.7°C 95% 1.2 mph SW1.9 kmh SW 3.0 mph4.8 kmh 29.34 in993.6 mb - 0.00 in0.0 mm 0.00 in0.0 mm
09:00 PM 38.5°F3.6°C 37.5°F3.1°C 96% 0.7 mph SW1.1 kmh SW 2.0 mph3.2 kmh 29.34 in993.6 mb - 0.00 in0.0 mm 0.00 in0.0 mm
09:30 PM 38.5°F3.6°C 37.5°F3.1°C 96% 0.3 mph SW0.5 kmh SW 1.0 mph1.6 kmh 29.33 in993.2 mb - 0.00 in0.0 mm 0.00 in0.0 mm
10:00 PM 38.4°F3.6°C 37.4°F3.0°C 96% 2.4 mph SW3.9 kmh SW 5.0 mph8.0 kmh 29.32 in992.9 mb - 0.00 in0.0 mm 0.00 in0.0 mm
10:30 PM 38.6°F3.7°C 37.5°F3.1°C 96% 0.1 mph SW0.2 kmh SW 1.0 mph1.6 kmh 29.31 in992.6 mb - 0.00 in0.0 mm 0.00 in0.0 mm
11:00 PM 38.6°F3.7°C 37.6°F3.1°C 96% 0.3 mph SW0.5 kmh SW 1.0 mph1.6 kmh 29.29 in991.9 mb - 0.00 in0.0 mm 0.00 in0.0 mm
11:30 PM 38.7°F3.7°C 37.7°F3.2°C 96% 0.3 mph SW0.5 kmh SW 2.0 mph3.2 kmh 29.28 in991.5 mb - 0.00 in0.0 mm 0.00 in0.0 mm